sensor_id;sensor_type;location;lat;lon;timestamp;P1;durP1;ratioP1;P2;durP2;ratioP2
7485;SDS011;3784;54.098;9.998;2024-03-07T00:00:06;34.00;;;20.90;;
7485;SDS011;3784;54.098;9.998;2024-03-07T00:02:48;29.50;;;20.87;;
7485;SDS011;3784;54.098;9.998;2024-03-07T00:05:16;32.00;;;20.70;;
7485;SDS011;3784;54.098;9.998;2024-03-07T00:07:43;29.87;;;20.77;;
7485;SDS011;3784;54.098;9.998;2024-03-07T00:10:10;26.90;;;18.83;;
7485;SDS011;3784;54.098;9.998;2024-03-07T00:12:37;34.03;;;20.50;;
7485;SDS011;3784;54.098;9.998;2024-03-07T00:15:07;27.80;;;20.07;;
7485;SDS011;3784;54.098;9.998;2024-03-07T00:17:35;39.80;;;21.67;;
7485;SDS011;3784;54.098;9.998;2024-03-07T00:20:02;31.03;;;19.10;;
7485;SDS011;3784;54.098;9.998;2024-03-07T00:22:30;33.13;;;21.07;;
7485;SDS011;3784;54.098;9.998;2024-03-07T00:24:57;26.37;;;19.37;;
7485;SDS011;3784;54.098;9.998;2024-03-07T00:27:23;29.00;;;19.93;;
7485;SDS011;3784;54.098;9.998;2024-03-07T00:29:50;29.47;;;19.50;;
7485;SDS011;3784;54.098;9.998;2024-03-07T00:32:20;28.07;;;19.10;;
7485;SDS011;3784;54.098;9.998;2024-03-07T00:34:46;26.80;;;19.10;;
7485;SDS011;3784;54.098;9.998;2024-03-07T00:37:13;24.60;;;17.97;;
7485;SDS011;3784;54.098;9.998;2024-03-07T00:39:40;27.80;;;18.13;;
7485;SDS011;3784;54.098;9.998;2024-03-07T00:42:07;26.40;;;15.93;;
7485;SDS011;3784;54.098;9.998;2024-03-07T00:44:34;22.30;;;16.97;;
7485;SDS011;3784;54.098;9.998;2024-03-07T00:47:01;31.03;;;17.30;;
7485;SDS011;3784;54.098;9.998;2024-03-07T00:49:31;26.80;;;18.73;;
7485;SDS011;3784;54.098;9.998;2024-03-07T00:51:58;28.40;;;18.80;;
7485;SDS011;3784;54.098;9.998;2024-03-07T00:54:25;29.43;;;17.37;;
7485;SDS011;3784;54.098;9.998;2024-03-07T00:56:51;24.97;;;18.10;;
7485;SDS011;3784;54.098;9.998;2024-03-07T00:59:18;25.43;;;18.63;;
7485;SDS011;3784;54.098;9.998;2024-03-07T01:01:45;30.63;;;18.93;;
7485;SDS011;3784;54.098;9.998;2024-03-07T01:04:11;26.27;;;16.90;;
7485;SDS011;3784;54.098;9.998;2024-03-07T01:06:38;24.97;;;17.90;;
7485;SDS011;3784;54.098;9.998;2024-03-07T01:09:05;24.00;;;18.00;;
7485;SDS011;3784;54.098;9.998;2024-03-07T01:11:43;22.70;;;16.53;;
7485;SDS011;3784;54.098;9.998;2024-03-07T01:14:10;22.90;;;16.53;;
7485;SDS011;3784;54.098;9.998;2024-03-07T01:16:37;24.07;;;16.53;;
7485;SDS011;3784;54.098;9.998;2024-03-07T01:19:04;20.97;;;15.97;;
7485;SDS011;3784;54.098;9.998;2024-03-07T01:21:33;23.60;;;16.27;;
7485;SDS011;3784;54.098;9.998;2024-03-07T01:24:04;23.70;;;17.00;;
7485;SDS011;3784;54.098;9.998;2024-03-07T01:26:31;23.67;;;16.63;;
7485;SDS011;3784;54.098;9.998;2024-03-07T01:28:59;19.20;;;15.63;;
7485;SDS011;3784;54.098;9.998;2024-03-07T01:31:26;22.40;;;15.90;;
7485;SDS011;3784;54.098;9.998;2024-03-07T01:33:52;24.33;;;16.67;;
7485;SDS011;3784;54.098;9.998;2024-03-07T01:36:19;23.87;;;16.20;;
7485;SDS011;3784;54.098;9.998;2024-03-07T01:38:46;22.93;;;15.90;;
7485;SDS011;3784;54.098;9.998;2024-03-07T01:41:13;26.67;;;16.50;;
7485;SDS011;3784;54.098;9.998;2024-03-07T01:43:41;22.97;;;14.97;;
7485;SDS011;3784;54.098;9.998;2024-03-07T01:46:08;25.27;;;15.57;;
7485;SDS011;3784;54.098;9.998;2024-03-07T01:48:34;21.83;;;13.80;;
7485;SDS011;3784;54.098;9.998;2024-03-07T01:51:02;21.80;;;15.00;;
7485;SDS011;3784;54.098;9.998;2024-03-07T01:53:30;20.43;;;14.50;;
7485;SDS011;3784;54.098;9.998;2024-03-07T01:55:57;22.50;;;14.73;;
7485;SDS011;3784;54.098;9.998;2024-03-07T01:58:25;20.73;;;15.00;;
7485;SDS011;3784;54.098;9.998;2024-03-07T02:00:51;22.87;;;14.40;;
7485;SDS011;3784;54.098;9.998;2024-03-07T02:03:18;18.40;;;13.17;;
7485;SDS011;3784;54.098;9.998;2024-03-07T02:05:44;19.97;;;14.10;;
7485;SDS011;3784;54.098;9.998;2024-03-07T02:08:11;22.13;;;13.10;;
7485;SDS011;3784;54.098;9.998;2024-03-07T02:10:37;17.53;;;12.87;;
7485;SDS011;3784;54.098;9.998;2024-03-07T02:13:04;14.93;;;12.47;;
7485;SDS011;3784;54.098;9.998;2024-03-07T02:15:30;20.20;;;13.80;;
7485;SDS011;3784;54.098;9.998;2024-03-07T02:17:57;18.20;;;12.70;;
7485;SDS011;3784;54.098;9.998;2024-03-07T02:20:24;16.87;;;12.43;;
7485;SDS011;3784;54.098;9.998;2024-03-07T02:22:50;19.30;;;12.90;;
7485;SDS011;3784;54.098;9.998;2024-03-07T02:25:17;19.73;;;13.40;;
7485;SDS011;3784;54.098;9.998;2024-03-07T02:27:43;18.30;;;12.80;;
7485;SDS011;3784;54.098;9.998;2024-03-07T02:30:11;15.97;;;12.40;;
7485;SDS011;3784;54.098;9.998;2024-03-07T02:32:38;19.70;;;13.17;;
7485;SDS011;3784;54.098;9.998;2024-03-07T02:35:05;16.53;;;12.13;;
7485;SDS011;3784;54.098;9.998;2024-03-07T02:37:33;16.07;;;11.80;;
7485;SDS011;3784;54.098;9.998;2024-03-07T02:39:59;15.83;;;10.73;;
7485;SDS011;3784;54.098;9.998;2024-03-07T02:42:25;15.10;;;11.37;;
7485;SDS011;3784;54.098;9.998;2024-03-07T02:44:52;16.23;;;12.00;;
7485;SDS011;3784;54.098;9.998;2024-03-07T02:47:19;15.53;;;11.57;;
7485;SDS011;3784;54.098;9.998;2024-03-07T02:49:45;16.53;;;11.50;;
7485;SDS011;3784;54.098;9.998;2024-03-07T02:52:11;17.47;;;11.40;;
7485;SDS011;3784;54.098;9.998;2024-03-07T02:54:38;16.00;;;11.53;;
7485;SDS011;3784;54.098;9.998;2024-03-07T02:57:05;15.17;;;11.03;;
7485;SDS011;3784;54.098;9.998;2024-03-07T02:59:31;14.97;;;11.30;;
7485;SDS011;3784;54.098;9.998;2024-03-07T03:01:58;16.63;;;11.60;;
7485;SDS011;3784;54.098;9.998;2024-03-07T03:04:24;15.80;;;11.33;;
7485;SDS011;3784;54.098;9.998;2024-03-07T03:06:51;13.77;;;11.77;;
7485;SDS011;3784;54.098;9.998;2024-03-07T03:09:17;18.37;;;11.37;;
7485;SDS011;3784;54.098;9.998;2024-03-07T03:11:44;16.23;;;11.03;;
7485;SDS011;3784;54.098;9.998;2024-03-07T03:14:14;14.27;;;11.07;;
7485;SDS011;3784;54.098;9.998;2024-03-07T03:16:41;13.13;;;11.70;;
7485;SDS011;3784;54.098;9.998;2024-03-07T03:19:14;14.30;;;10.77;;
7485;SDS011;3784;54.098;9.998;2024-03-07T03:21:41;13.67;;;10.30;;
7485;SDS011;3784;54.098;9.998;2024-03-07T03:24:08;11.37;;;9.13;;
7485;SDS011;3784;54.098;9.998;2024-03-07T03:26:35;11.63;;;10.30;;
7485;SDS011;3784;54.098;9.998;2024-03-07T03:29:01;13.77;;;9.47;;
7485;SDS011;3784;54.098;9.998;2024-03-07T03:31:28;13.83;;;9.57;;
7485;SDS011;3784;54.098;9.998;2024-03-07T03:33:55;13.73;;;10.43;;
7485;SDS011;3784;54.098;9.998;2024-03-07T03:36:21;14.57;;;10.80;;
7485;SDS011;3784;54.098;9.998;2024-03-07T03:38:48;12.60;;;11.30;;
7485;SDS011;3784;54.098;9.998;2024-03-07T03:41:15;13.70;;;10.17;;
7485;SDS011;3784;54.098;9.998;2024-03-07T03:43:43;11.90;;;9.97;;
7485;SDS011;3784;54.098;9.998;2024-03-07T03:46:10;21.10;;;13.10;;
7485;SDS011;3784;54.098;9.998;2024-03-07T03:48:38;11.17;;;9.93;;
7485;SDS011;3784;54.098;9.998;2024-03-07T03:51:08;14.43;;;10.13;;
7485;SDS011;3784;54.098;9.998;2024-03-07T03:53:35;13.33;;;10.87;;
7485;SDS011;3784;54.098;9.998;2024-03-07T03:56:03;15.57;;;10.93;;
7485;SDS011;3784;54.098;9.998;2024-03-07T03:58:32;12.50;;;11.20;;
7485;SDS011;3784;54.098;9.998;2024-03-07T04:01:00;15.27;;;10.13;;
7485;SDS011;3784;54.098;9.998;2024-03-07T04:03:26;13.50;;;10.30;;
7485;SDS011;3784;54.098;9.998;2024-03-07T04:05:53;12.33;;;11.03;;
7485;SDS011;3784;54.098;9.998;2024-03-07T04:08:21;16.07;;;10.77;;
7485;SDS011;3784;54.098;9.998;2024-03-07T04:10:48;15.20;;;10.63;;
7485;SDS011;3784;54.098;9.998;2024-03-07T04:13:14;14.30;;;10.47;;
7485;SDS011;3784;54.098;9.998;2024-03-07T04:15:41;15.97;;;11.97;;
7485;SDS011;3784;54.098;9.998;2024-03-07T04:18:10;11.53;;;9.93;;
7485;SDS011;3784;54.098;9.998;2024-03-07T04:20:37;14.33;;;10.87;;
7485;SDS011;3784;54.098;9.998;2024-03-07T04:23:03;15.07;;;10.33;;
7485;SDS011;3784;54.098;9.998;2024-03-07T04:25:30;13.03;;;10.37;;
7485;SDS011;3784;54.098;9.998;2024-03-07T04:27:57;12.33;;;10.47;;
7485;SDS011;3784;54.098;9.998;2024-03-07T04:30:24;14.17;;;11.43;;
7485;SDS011;3784;54.098;9.998;2024-03-07T04:32:50;15.73;;;11.10;;
7485;SDS011;3784;54.098;9.998;2024-03-07T04:35:18;12.37;;;10.50;;
7485;SDS011;3784;54.098;9.998;2024-03-07T04:37:45;15.03;;;10.50;;
7485;SDS011;3784;54.098;9.998;2024-03-07T04:40:12;12.87;;;10.53;;
7485;SDS011;3784;54.098;9.998;2024-03-07T04:42:43;12.53;;;10.43;;
7485;SDS011;3784;54.098;9.998;2024-03-07T04:45:10;15.50;;;11.33;;
7485;SDS011;3784;54.098;9.998;2024-03-07T04:47:42;13.17;;;11.03;;
7485;SDS011;3784;54.098;9.998;2024-03-07T04:50:09;14.70;;;10.27;;
7485;SDS011;3784;54.098;9.998;2024-03-07T04:52:37;15.60;;;11.23;;
7485;SDS011;3784;54.098;9.998;2024-03-07T04:55:05;12.90;;;10.87;;
7485;SDS011;3784;54.098;9.998;2024-03-07T04:57:35;12.60;;;10.63;;
7485;SDS011;3784;54.098;9.998;2024-03-07T05:00:02;13.27;;;11.33;;
7485;SDS011;3784;54.098;9.998;2024-03-07T05:02:33;15.20;;;11.17;;
7485;SDS011;3784;54.098;9.998;2024-03-07T05:05:00;12.80;;;11.43;;
7485;SDS011;3784;54.098;9.998;2024-03-07T05:07:26;12.17;;;10.53;;
7485;SDS011;3784;54.098;9.998;2024-03-07T05:09:53;12.50;;;10.80;;
7485;SDS011;3784;54.098;9.998;2024-03-07T05:12:19;12.13;;;10.73;;
7485;SDS011;3784;54.098;9.998;2024-03-07T05:14:46;12.33;;;10.83;;
7485;SDS011;3784;54.098;9.998;2024-03-07T05:17:12;14.20;;;11.13;;
7485;SDS011;3784;54.098;9.998;2024-03-07T05:19:39;14.27;;;10.73;;
7485;SDS011;3784;54.098;9.998;2024-03-07T05:22:05;15.07;;;11.63;;
7485;SDS011;3784;54.098;9.998;2024-03-07T05:24:32;15.03;;;11.67;;
7485;SDS011;3784;54.098;9.998;2024-03-07T05:27:00;15.10;;;12.07;;
7485;SDS011;3784;54.098;9.998;2024-03-07T05:29:26;17.17;;;11.90;;
7485;SDS011;3784;54.098;9.998;2024-03-07T05:31:53;13.27;;;10.87;;
7485;SDS011;3784;54.098;9.998;2024-03-07T05:34:19;14.60;;;12.13;;
7485;SDS011;3784;54.098;9.998;2024-03-07T05:36:46;14.97;;;11.90;;
7485;SDS011;3784;54.098;9.998;2024-03-07T05:39:14;15.60;;;11.40;;
7485;SDS011;3784;54.098;9.998;2024-03-07T05:41:42;11.70;;;10.23;;
7485;SDS011;3784;54.098;9.998;2024-03-07T05:44:11;13.43;;;11.70;;
7485;SDS011;3784;54.098;9.998;2024-03-07T05:46:37;14.10;;;10.43;;
7485;SDS011;3784;54.098;9.998;2024-03-07T05:49:08;17.37;;;11.30;;
7485;SDS011;3784;54.098;9.998;2024-03-07T05:51:35;14.17;;;11.43;;
7485;SDS011;3784;54.098;9.998;2024-03-07T05:54:03;15.07;;;10.77;;
7485;SDS011;3784;54.098;9.998;2024-03-07T05:56:33;15.10;;;11.03;;
7485;SDS011;3784;54.098;9.998;2024-03-07T05:59:02;13.30;;;10.00;;
7485;SDS011;3784;54.098;9.998;2024-03-07T06:01:33;12.10;;;10.40;;
7485;SDS011;3784;54.098;9.998;2024-03-07T06:04:00;13.47;;;10.47;;
7485;SDS011;3784;54.098;9.998;2024-03-07T06:06:28;16.57;;;11.13;;
7485;SDS011;3784;54.098;9.998;2024-03-07T06:09:01;11.43;;;9.80;;
7485;SDS011;3784;54.098;9.998;2024-03-07T06:11:40;12.00;;;10.20;;
7485;SDS011;3784;54.098;9.998;2024-03-07T06:14:10;14.20;;;10.93;;
7485;SDS011;3784;54.098;9.998;2024-03-07T06:16:40;12.60;;;10.30;;
7485;SDS011;3784;54.098;9.998;2024-03-07T06:19:07;12.27;;;10.10;;
7485;SDS011;3784;54.098;9.998;2024-03-07T06:21:37;13.17;;;10.33;;
7485;SDS011;3784;54.098;9.998;2024-03-07T06:24:09;12.30;;;9.47;;
7485;SDS011;3784;54.098;9.998;2024-03-07T06:26:38;14.27;;;10.63;;
7485;SDS011;3784;54.098;9.998;2024-03-07T06:29:19;12.43;;;10.50;;
7485;SDS011;3784;54.098;9.998;2024-03-07T06:31:45;12.43;;;9.83;;
7485;SDS011;3784;54.098;9.998;2024-03-07T06:34:16;14.77;;;9.87;;
7485;SDS011;3784;54.098;9.998;2024-03-07T06:36:43;11.87;;;9.90;;
7485;SDS011;3784;54.098;9.998;2024-03-07T06:39:10;11.90;;;10.33;;
7485;SDS011;3784;54.098;9.998;2024-03-07T06:41:37;13.40;;;9.90;;
7485;SDS011;3784;54.098;9.998;2024-03-07T06:44:04;12.37;;;9.67;;
7485;SDS011;3784;54.098;9.998;2024-03-07T06:46:31;12.67;;;10.13;;
7485;SDS011;3784;54.098;9.998;2024-03-07T06:48:58;11.50;;;9.03;;
7485;SDS011;3784;54.098;9.998;2024-03-07T06:51:25;11.37;;;9.53;;
7485;SDS011;3784;54.098;9.998;2024-03-07T06:53:51;12.77;;;9.60;;
7485;SDS011;3784;54.098;9.998;2024-03-07T06:56:18;14.77;;;10.00;;
7485;SDS011;3784;54.098;9.998;2024-03-07T06:58:45;12.67;;;9.80;;
7485;SDS011;3784;54.098;9.998;2024-03-07T07:01:15;9.93;;;8.93;;
7485;SDS011;3784;54.098;9.998;2024-03-07T07:03:42;12.23;;;8.63;;
7485;SDS011;3784;54.098;9.998;2024-03-07T07:06:10;10.53;;;8.83;;
7485;SDS011;3784;54.098;9.998;2024-03-07T07:08:38;14.37;;;9.73;;
7485;SDS011;3784;54.098;9.998;2024-03-07T07:11:08;12.33;;;9.53;;
7485;SDS011;3784;54.098;9.998;2024-03-07T07:13:40;12.73;;;8.97;;
7485;SDS011;3784;54.098;9.998;2024-03-07T07:16:08;12.93;;;9.57;;
7485;SDS011;3784;54.098;9.998;2024-03-07T07:18:35;13.53;;;9.47;;
7485;SDS011;3784;54.098;9.998;2024-03-07T07:21:03;9.83;;;8.37;;
7485;SDS011;3784;54.098;9.998;2024-03-07T07:23:30;12.50;;;9.20;;
7485;SDS011;3784;54.098;9.998;2024-03-07T07:25:59;10.03;;;8.87;;
7485;SDS011;3784;54.098;9.998;2024-03-07T07:28:25;11.73;;;9.97;;
7485;SDS011;3784;54.098;9.998;2024-03-07T07:30:53;12.27;;;9.50;;
7485;SDS011;3784;54.098;9.998;2024-03-07T07:33:19;12.63;;;9.50;;
7485;SDS011;3784;54.098;9.998;2024-03-07T07:35:46;12.83;;;9.70;;
7485;SDS011;3784;54.098;9.998;2024-03-07T07:38:13;11.17;;;9.43;;
7485;SDS011;3784;54.098;9.998;2024-03-07T07:40:41;11.27;;;10.07;;
7485;SDS011;3784;54.098;9.998;2024-03-07T07:43:09;12.47;;;10.20;;
7485;SDS011;3784;54.098;9.998;2024-03-07T07:45:39;12.37;;;10.20;;
7485;SDS011;3784;54.098;9.998;2024-03-07T07:48:06;11.60;;;10.40;;
7485;SDS011;3784;54.098;9.998;2024-03-07T07:50:38;15.83;;;10.83;;
7485;SDS011;3784;54.098;9.998;2024-03-07T07:53:05;14.07;;;10.43;;
7485;SDS011;3784;54.098;9.998;2024-03-07T07:55:35;13.90;;;10.70;;
7485;SDS011;3784;54.098;9.998;2024-03-07T07:58:05;12.97;;;9.90;;
7485;SDS011;3784;54.098;9.998;2024-03-07T08:03:18;17.13;;;11.30;;
7485;SDS011;3784;54.098;9.998;2024-03-07T08:05:48;17.63;;;10.97;;
7485;SDS011;3784;54.098;9.998;2024-03-07T08:08:15;12.13;;;9.97;;
7485;SDS011;3784;54.098;9.998;2024-03-07T08:10:43;13.77;;;10.90;;
7485;SDS011;3784;54.098;9.998;2024-03-07T08:13:12;11.50;;;10.30;;
7485;SDS011;3784;54.098;9.998;2024-03-07T08:15:48;12.47;;;10.37;;
7485;SDS011;3784;54.098;9.998;2024-03-07T08:18:15;11.53;;;10.30;;
7485;SDS011;3784;54.098;9.998;2024-03-07T08:20:43;11.83;;;10.63;;
7485;SDS011;3784;54.098;9.998;2024-03-07T08:23:21;14.00;;;10.73;;
7485;SDS011;3784;54.098;9.998;2024-03-07T08:25:54;14.53;;;11.30;;
7485;SDS011;3784;54.098;9.998;2024-03-07T08:28:27;15.27;;;10.90;;
7485;SDS011;3784;54.098;9.998;2024-03-07T08:30:55;13.10;;;11.27;;
7485;SDS011;3784;54.098;9.998;2024-03-07T08:33:22;14.77;;;11.07;;
7485;SDS011;3784;54.098;9.998;2024-03-07T08:35:49;13.27;;;11.70;;
7485;SDS011;3784;54.098;9.998;2024-03-07T08:38:16;13.90;;;12.10;;
7485;SDS011;3784;54.098;9.998;2024-03-07T08:40:42;13.37;;;11.93;;
7485;SDS011;3784;54.098;9.998;2024-03-07T08:43:09;17.60;;;12.70;;
7485;SDS011;3784;54.098;9.998;2024-03-07T08:45:36;14.43;;;12.27;;
7485;SDS011;3784;54.098;9.998;2024-03-07T08:48:02;15.90;;;11.90;;
7485;SDS011;3784;54.098;9.998;2024-03-07T08:50:36;17.90;;;13.17;;
7485;SDS011;3784;54.098;9.998;2024-03-07T08:53:04;16.47;;;13.50;;
7485;SDS011;3784;54.098;9.998;2024-03-07T08:55:31;15.60;;;13.10;;
7485;SDS011;3784;54.098;9.998;2024-03-07T08:57:57;17.97;;;14.33;;
7485;SDS011;3784;54.098;9.998;2024-03-07T09:00:24;17.03;;;14.50;;
7485;SDS011;3784;54.098;9.998;2024-03-07T09:02:56;19.60;;;15.03;;
7485;SDS011;3784;54.098;9.998;2024-03-07T09:05:26;21.47;;;15.20;;
7485;SDS011;3784;54.098;9.998;2024-03-07T09:07:54;19.57;;;15.40;;
7485;SDS011;3784;54.098;9.998;2024-03-07T09:17:26;18.57;;;14.47;;
7485;SDS011;3784;54.098;9.998;2024-03-07T09:44:43;18.50;;;16.60;;
7485;SDS011;3784;54.098;9.998;2024-03-07T09:47:13;19.60;;;17.50;;
7485;SDS011;3784;54.098;9.998;2024-03-07T09:49:39;21.07;;;16.20;;
7485;SDS011;3784;54.098;9.998;2024-03-07T09:52:06;17.20;;;15.40;;
7485;SDS011;3784;54.098;9.998;2024-03-07T09:54:38;19.33;;;16.37;;
7485;SDS011;3784;54.098;9.998;2024-03-07T09:57:06;17.10;;;15.03;;
7485;SDS011;3784;54.098;9.998;2024-03-07T09:59:34;21.20;;;16.27;;
7485;SDS011;3784;54.098;9.998;2024-03-07T10:02:06;24.47;;;17.60;;
7485;SDS011;3784;54.098;9.998;2024-03-07T10:04:37;19.73;;;15.53;;
7485;SDS011;3784;54.098;9.998;2024-03-07T10:07:07;19.10;;;16.23;;
7485;SDS011;3784;54.098;9.998;2024-03-07T10:09:38;21.33;;;18.63;;
7485;SDS011;3784;54.098;9.998;2024-03-07T10:12:06;23.53;;;18.07;;
7485;SDS011;3784;54.098;9.998;2024-03-07T10:14:36;21.50;;;17.07;;
7485;SDS011;3784;54.098;9.998;2024-03-07T10:17:03;21.10;;;17.47;;
7485;SDS011;3784;54.098;9.998;2024-03-07T10:19:30;20.67;;;16.37;;
7485;SDS011;3784;54.098;9.998;2024-03-07T10:21:56;22.30;;;17.73;;
7485;SDS011;3784;54.098;9.998;2024-03-07T10:24:27;20.10;;;17.53;;
7485;SDS011;3784;54.098;9.998;2024-03-07T10:26:54;20.20;;;18.10;;
7485;SDS011;3784;54.098;9.998;2024-03-07T10:29:24;20.53;;;16.07;;
7485;SDS011;3784;54.098;9.998;2024-03-07T10:31:51;19.93;;;17.93;;
7485;SDS011;3784;54.098;9.998;2024-03-07T10:34:33;20.40;;;16.77;;
7485;SDS011;3784;54.098;9.998;2024-03-07T10:37:00;19.93;;;17.70;;
7485;SDS011;3784;54.098;9.998;2024-03-07T10:39:30;19.70;;;17.63;;
7485;SDS011;3784;54.098;9.998;2024-03-07T10:41:57;22.47;;;18.53;;
7485;SDS011;3784;54.098;9.998;2024-03-07T10:44:31;20.03;;;17.53;;
7485;SDS011;3784;54.098;9.998;2024-03-07T10:47:00;24.03;;;18.87;;
7485;SDS011;3784;54.098;9.998;2024-03-07T10:49:31;22.97;;;18.23;;
7485;SDS011;3784;54.098;9.998;2024-03-07T10:54:33;22.73;;;19.50;;
7485;SDS011;3784;54.098;9.998;2024-03-07T10:57:23;23.97;;;18.67;;
7485;SDS011;3784;54.098;9.998;2024-03-07T11:14:22;20.60;;;16.87;;
7485;SDS011;3784;54.098;9.998;2024-03-07T11:16:49;22.47;;;17.37;;
7485;SDS011;3784;54.098;9.998;2024-03-07T11:26:34;18.77;;;16.30;;
7485;SDS011;3784;54.098;9.998;2024-03-07T11:29:01;19.83;;;16.87;;
7485;SDS011;3784;54.098;9.998;2024-03-07T11:31:41;19.40;;;16.77;;
7485;SDS011;3784;54.098;9.998;2024-03-07T11:34:14;19.93;;;17.87;;
7485;SDS011;3784;54.098;9.998;2024-03-07T11:36:42;18.97;;;16.40;;
7485;SDS011;3784;54.098;9.998;2024-03-07T11:39:38;22.00;;;16.60;;
7485;SDS011;3784;54.098;9.998;2024-03-07T11:46:15;17.37;;;15.50;;
7485;SDS011;3784;54.098;9.998;2024-03-07T11:53:07;16.93;;;14.43;;
7485;SDS011;3784;54.098;9.998;2024-03-07T12:22:32;17.63;;;14.83;;
7485;SDS011;3784;54.098;9.998;2024-03-07T12:25:26;18.50;;;15.47;;
7485;SDS011;3784;54.098;9.998;2024-03-07T15:04:45;16.40;;;14.43;;
7485;SDS011;3784;54.098;9.998;2024-03-07T15:07:12;17.40;;;15.43;;
7485;SDS011;3784;54.098;9.998;2024-03-07T15:21:06;17.83;;;15.93;;
7485;SDS011;3784;54.098;9.998;2024-03-07T15:29:48;19.63;;;16.30;;
7485;SDS011;3784;54.098;9.998;2024-03-07T15:32:21;18.63;;;14.80;;
7485;SDS011;3784;54.098;9.998;2024-03-07T15:35:00;16.33;;;14.60;;
7485;SDS011;3784;54.098;9.998;2024-03-07T15:37:27;20.27;;;17.03;;
7485;SDS011;3784;54.098;9.998;2024-03-07T15:40:20;22.20;;;17.20;;
7485;SDS011;3784;54.098;9.998;2024-03-07T15:42:48;18.73;;;14.67;;
7485;SDS011;3784;54.098;9.998;2024-03-07T15:51:22;16.73;;;14.80;;
7485;SDS011;3784;54.098;9.998;2024-03-07T15:53:54;15.83;;;14.10;;
7485;SDS011;3784;54.098;9.998;2024-03-07T15:59:38;18.00;;;14.50;;
7485;SDS011;3784;54.098;9.998;2024-03-07T16:09:49;18.50;;;15.10;;
7485;SDS011;3784;54.098;9.998;2024-03-07T16:13:19;18.90;;;13.97;;
7485;SDS011;3784;54.098;9.998;2024-03-07T16:16:39;19.00;;;13.53;;
7485;SDS011;3784;54.098;9.998;2024-03-07T16:19:24;17.17;;;14.23;;
7485;SDS011;3784;54.098;9.998;2024-03-07T16:25:17;17.10;;;15.03;;
7485;SDS011;3784;54.098;9.998;2024-03-07T16:27:46;17.70;;;13.73;;
7485;SDS011;3784;54.098;9.998;2024-03-07T16:30:18;17.50;;;14.63;;
7485;SDS011;3784;54.098;9.998;2024-03-07T16:32:46;15.93;;;14.23;;
7485;SDS011;3784;54.098;9.998;2024-03-07T16:35:16;15.47;;;12.93;;
7485;SDS011;3784;54.098;9.998;2024-03-07T16:37:45;18.67;;;13.63;;
7485;SDS011;3784;54.098;9.998;2024-03-07T16:40:19;15.50;;;13.77;;
7485;SDS011;3784;54.098;9.998;2024-03-07T16:42:46;18.67;;;13.83;;
7485;SDS011;3784;54.098;9.998;2024-03-07T16:45:22;15.87;;;14.27;;
7485;SDS011;3784;54.098;9.998;2024-03-07T16:47:50;16.97;;;13.33;;
7485;SDS011;3784;54.098;9.998;2024-03-07T16:50:23;16.47;;;13.90;;
7485;SDS011;3784;54.098;9.998;2024-03-07T16:52:55;22.37;;;14.23;;
7485;SDS011;3784;54.098;9.998;2024-03-07T16:55:28;17.47;;;13.87;;
7485;SDS011;3784;54.098;9.998;2024-03-07T16:57:56;19.67;;;14.00;;
7485;SDS011;3784;54.098;9.998;2024-03-07T17:00:26;17.73;;;14.47;;
7485;SDS011;3784;54.098;9.998;2024-03-07T17:03:05;18.37;;;13.97;;
7485;SDS011;3784;54.098;9.998;2024-03-07T17:05:33;18.03;;;14.13;;
7485;SDS011;3784;54.098;9.998;2024-03-07T17:08:01;20.37;;;14.53;;
7485;SDS011;3784;54.098;9.998;2024-03-07T17:10:32;22.37;;;16.03;;
7485;SDS011;3784;54.098;9.998;2024-03-07T17:13:02;18.10;;;14.30;;
7485;SDS011;3784;54.098;9.998;2024-03-07T17:15:31;16.40;;;14.53;;
7485;SDS011;3784;54.098;9.998;2024-03-07T17:17:58;20.23;;;16.07;;
7485;SDS011;3784;54.098;9.998;2024-03-07T17:20:25;19.37;;;16.37;;
7485;SDS011;3784;54.098;9.998;2024-03-07T17:22:53;19.63;;;15.00;;
7485;SDS011;3784;54.098;9.998;2024-03-07T17:25:21;17.77;;;13.57;;
7485;SDS011;3784;54.098;9.998;2024-03-07T17:27:49;16.97;;;14.33;;
7485;SDS011;3784;54.098;9.998;2024-03-07T17:30:17;19.97;;;15.07;;
7485;SDS011;3784;54.098;9.998;2024-03-07T17:32:45;18.77;;;14.33;;
7485;SDS011;3784;54.098;9.998;2024-03-07T17:35:12;16.60;;;13.47;;
7485;SDS011;3784;54.098;9.998;2024-03-07T17:37:39;16.63;;;12.77;;
7485;SDS011;3784;54.098;9.998;2024-03-07T17:40:06;16.50;;;12.90;;
7485;SDS011;3784;54.098;9.998;2024-03-07T17:42:44;16.27;;;13.93;;
7485;SDS011;3784;54.098;9.998;2024-03-07T17:45:19;16.83;;;14.23;;
7485;SDS011;3784;54.098;9.998;2024-03-07T17:47:55;18.30;;;14.43;;
7485;SDS011;3784;54.098;9.998;2024-03-07T17:50:24;16.07;;;13.13;;
7485;SDS011;3784;54.098;9.998;2024-03-07T17:52:52;17.97;;;15.23;;
7485;SDS011;3784;54.098;9.998;2024-03-07T17:55:19;20.70;;;15.40;;
7485;SDS011;3784;54.098;9.998;2024-03-07T17:57:50;22.47;;;14.43;;
7485;SDS011;3784;54.098;9.998;2024-03-07T18:00:17;17.63;;;14.40;;
7485;SDS011;3784;54.098;9.998;2024-03-07T18:02:53;16.67;;;13.60;;
7485;SDS011;3784;54.098;9.998;2024-03-07T18:05:23;21.77;;;14.77;;
7485;SDS011;3784;54.098;9.998;2024-03-07T18:07:52;16.63;;;14.87;;
7485;SDS011;3784;54.098;9.998;2024-03-07T18:10:27;17.47;;;14.10;;
7485;SDS011;3784;54.098;9.998;2024-03-07T18:12:57;16.13;;;13.83;;
7485;SDS011;3784;54.098;9.998;2024-03-07T18:15:23;20.37;;;14.10;;
7485;SDS011;3784;54.098;9.998;2024-03-07T18:17:54;15.83;;;13.87;;
7485;SDS011;3784;54.098;9.998;2024-03-07T18:20:27;15.67;;;13.97;;
7485;SDS011;3784;54.098;9.998;2024-03-07T18:22:55;18.03;;;14.70;;
7485;SDS011;3784;54.098;9.998;2024-03-07T18:25:26;21.93;;;14.73;;
7485;SDS011;3784;54.098;9.998;2024-03-07T18:27:53;18.77;;;16.77;;
7485;SDS011;3784;54.098;9.998;2024-03-07T18:30:25;19.97;;;16.33;;
7485;SDS011;3784;54.098;9.998;2024-03-07T18:32:52;24.30;;;18.53;;
7485;SDS011;3784;54.098;9.998;2024-03-07T18:35:18;21.33;;;16.93;;
7485;SDS011;3784;54.098;9.998;2024-03-07T18:37:46;18.17;;;14.87;;
7485;SDS011;3784;54.098;9.998;2024-03-07T18:40:18;18.13;;;14.77;;
7485;SDS011;3784;54.098;9.998;2024-03-07T18:42:50;19.17;;;15.70;;
7485;SDS011;3784;54.098;9.998;2024-03-07T18:45:20;23.23;;;16.20;;
7485;SDS011;3784;54.098;9.998;2024-03-07T18:47:48;21.07;;;14.93;;
7485;SDS011;3784;54.098;9.998;2024-03-07T18:50:22;24.07;;;15.93;;
7485;SDS011;3784;54.098;9.998;2024-03-07T18:52:54;20.43;;;16.07;;
7485;SDS011;3784;54.098;9.998;2024-03-07T18:55:23;19.27;;;15.20;;
7485;SDS011;3784;54.098;9.998;2024-03-07T18:57:57;19.53;;;14.83;;
7485;SDS011;3784;54.098;9.998;2024-03-07T19:00:28;18.80;;;14.57;;
7485;SDS011;3784;54.098;9.998;2024-03-07T19:03:02;16.10;;;14.40;;
7485;SDS011;3784;54.098;9.998;2024-03-07T19:05:30;21.60;;;16.10;;
7485;SDS011;3784;54.098;9.998;2024-03-07T19:07:58;21.43;;;15.37;;
7485;SDS011;3784;54.098;9.998;2024-03-07T19:10:27;18.90;;;14.70;;
7485;SDS011;3784;54.098;9.998;2024-03-07T19:12:59;17.13;;;13.30;;
7485;SDS011;3784;54.098;9.998;2024-03-07T19:15:26;20.27;;;16.57;;
7485;SDS011;3784;54.098;9.998;2024-03-07T19:17:52;16.73;;;14.43;;
7485;SDS011;3784;54.098;9.998;2024-03-07T19:20:20;20.13;;;16.27;;
7485;SDS011;3784;54.098;9.998;2024-03-07T19:22:47;20.43;;;17.73;;
7485;SDS011;3784;54.098;9.998;2024-03-07T19:25:15;17.30;;;15.07;;
7485;SDS011;3784;54.098;9.998;2024-03-07T19:27:47;20.03;;;14.67;;
7485;SDS011;3784;54.098;9.998;2024-03-07T19:30:19;20.87;;;16.47;;
7485;SDS011;3784;54.098;9.998;2024-03-07T19:32:46;20.10;;;14.93;;
7485;SDS011;3784;54.098;9.998;2024-03-07T19:35:13;17.20;;;15.33;;
7485;SDS011;3784;54.098;9.998;2024-03-07T19:37:46;19.33;;;15.47;;
7485;SDS011;3784;54.098;9.998;2024-03-07T19:40:17;19.40;;;15.50;;
7485;SDS011;3784;54.098;9.998;2024-03-07T19:42:48;19.33;;;14.93;;
7485;SDS011;3784;54.098;9.998;2024-03-07T19:45:18;22.07;;;16.00;;
7485;SDS011;3784;54.098;9.998;2024-03-07T19:47:45;22.63;;;16.23;;